sensor_id;sensor_type;location;lat;lon;timestamp;pressure;altitude;pressure_sealevel;temperature;humidity
24666;BME280;29726;53.532;-1.478;2023-07-16T10:24:30;99244.84;;;19.21;100.00
24666;BME280;29726;53.532;-1.478;2023-07-16T10:27:15;99298.44;;;19.97;100.00
24666;BME280;29726;53.532;-1.478;2023-07-16T10:30:00;99323.97;;;20.70;100.00
24666;BME280;29726;53.532;-1.478;2023-07-16T10:32:51;99351.22;;;21.40;100.00
24666;BME280;29726;53.532;-1.478;2023-07-16T10:35:41;99390.31;;;22.01;100.00
24666;BME280;29726;53.532;-1.478;2023-07-16T10:38:25;99401.84;;;22.11;100.00
24666;BME280;29726;53.532;-1.478;2023-07-16T10:41:10;99420.50;;;21.82;100.00
24666;BME280;29726;53.532;-1.478;2023-07-16T10:43:54;99365.22;;;21.31;100.00
24666;BME280;29726;53.532;-1.478;2023-07-16T10:46:38;99395.16;;;21.32;100.00
24666;BME280;29726;53.532;-1.478;2023-07-16T10:49:28;99388.53;;;21.14;100.00
24666;BME280;29726;53.532;-1.478;2023-07-16T10:52:12;99375.47;;;20.96;100.00
24666;BME280;29726;53.532;-1.478;2023-07-16T10:54:56;99386.63;;;20.94;100.00
24666;BME280;29726;53.532;-1.478;2023-07-16T10:57:42;99377.34;;;20.86;100.00
24666;BME280;29726;53.532;-1.478;2023-07-16T11:00:26;99358.81;;;20.85;100.00
24666;BME280;29726;53.532;-1.478;2023-07-16T11:03:10;99347.06;;;20.81;100.00
24666;BME280;29726;53.532;-1.478;2023-07-16T11:05:54;99348.56;;;20.82;100.00
24666;BME280;29726;53.532;-1.478;2023-07-16T11:08:38;99348.56;;;20.82;100.00
24666;BME280;29726;53.532;-1.478;2023-07-16T11:11:29;99353.88;;;20.86;100.00
24666;BME280;29726;53.532;-1.478;2023-07-16T11:14:13;99369.41;;;20.92;100.00
24666;BME280;29726;53.532;-1.478;2023-07-16T11:17:04;99348.56;;;20.82;100.00
24666;BME280;29726;53.532;-1.478;2023-07-16T11:19:51;99368.28;;;21.03;100.00
24666;BME280;29726;53.532;-1.478;2023-07-16T11:22:38;99375.09;;;21.07;100.00
24666;BME280;29726;53.532;-1.478;2023-07-16T11:28:07;99376.97;;;21.12;nan
24666;BME280;29726;53.532;-1.478;2023-07-16T11:30:51;99383.81;;;21.17;nan
24666;BME280;29726;53.532;-1.478;2023-07-16T11:33:35;99373.19;;;21.17;nan
24666;BME280;29726;53.532;-1.478;2023-07-16T11:36:19;99366.41;;;21.13;nan
24666;BME280;29726;53.532;-1.478;2023-07-16T11:39:03;99377.75;;;21.28;nan
24666;BME280;29726;53.532;-1.478;2023-07-16T11:41:55;99380.56;;;21.35;nan
24666;BME280;29726;53.532;-1.478;2023-07-16T11:44:39;99382.28;;;21.38;nan
24666;BME280;29726;53.532;-1.478;2023-07-16T11:47:24;99380.38;;;21.41;nan
24666;BME280;29726;53.532;-1.478;2023-07-16T11:50:08;99361.47;;;21.36;nan
24666;BME280;29726;53.532;-1.478;2023-07-16T11:52:54;99377.34;;;21.46;nan
24666;BME280;29726;53.532;-1.478;2023-07-16T11:55:38;99386.63;;;21.54;nan
24666;BME280;29726;53.532;-1.478;2023-07-16T11:58:23;99369.94;;;21.58;nan
24666;BME280;29726;53.532;-1.478;2023-07-16T12:01:07;99365.22;;;21.61;nan
24666;BME280;29726;53.532;-1.478;2023-07-16T12:03:51;99373.53;;;21.66;nan
24666;BME280;29726;53.532;-1.478;2023-07-16T12:06:34;99388.34;;;21.72;nan
24666;BME280;29726;53.532;-1.478;2023-07-16T12:09:18;99383.00;;;21.76;nan
24666;BME280;29726;53.532;-1.478;2023-07-16T12:12:03;99381.09;;;21.79;nan
24666;BME280;29726;53.532;-1.478;2023-07-16T12:14:47;99395.09;;;21.84;nan
24666;BME280;29726;53.532;-1.478;2023-07-16T12:17:31;99412.88;;;21.92;nan
24666;BME280;29726;53.532;-1.478;2023-07-16T12:20:15;99415.16;;;21.94;nan
24666;BME280;29726;53.532;-1.478;2023-07-16T12:22:59;99403.97;;;21.96;nan
24666;BME280;29726;53.532;-1.478;2023-07-16T12:25:43;99415.53;;;21.98;nan
24666;BME280;29726;53.532;-1.478;2023-07-16T12:28:27;99420.66;;;22.06;nan
24666;BME280;29726;53.532;-1.478;2023-07-16T12:31:11;99424.59;;;22.11;nan
24666;BME280;29726;53.532;-1.478;2023-07-16T12:33:55;99439.38;;;22.17;nan
24666;BME280;29726;53.532;-1.478;2023-07-16T12:36:39;99438.22;;;22.20;nan
24666;BME280;29726;53.532;-1.478;2023-07-16T12:39:23;99443.50;;;22.23;nan
24666;BME280;29726;53.532;-1.478;2023-07-16T12:42:07;99450.31;;;22.28;nan
24666;BME280;29726;53.532;-1.478;2023-07-16T12:44:52;99459.03;;;22.30;nan
24666;BME280;29726;53.532;-1.478;2023-07-16T12:47:36;99442.34;;;22.34;nan
24666;BME280;29726;53.532;-1.478;2023-07-16T12:50:22;99446.50;;;22.33;nan
24666;BME280;29726;53.532;-1.478;2023-07-16T12:53:06;99460.91;;;22.42;nan
24666;BME280;29726;53.532;-1.478;2023-07-16T12:55:51;99465.44;;;22.45;nan
24666;BME280;29726;53.532;-1.478;2023-07-16T12:58:35;99480.44;;;22.46;nan
24666;BME280;29726;53.532;-1.478;2023-07-16T13:01:19;99417.38;;;22.17;nan
24666;BME280;29726;53.532;-1.478;2023-07-16T13:04:03;99471.13;;;22.53;nan
24666;BME280;29726;53.532;-1.478;2023-07-16T13:06:47;99457.50;;;22.51;nan
24666;BME280;29726;53.532;-1.478;2023-07-16T13:09:32;99459.75;;;22.53;nan
24666;BME280;29726;53.532;-1.478;2023-07-16T13:12:15;99474.16;;;22.55;nan
24666;BME280;29726;53.532;-1.478;2023-07-16T13:15:00;99510.91;;;22.68;nan
24666;BME280;29726;53.532;-1.478;2023-07-16T13:17:43;99461.38;;;22.71;nan
24666;BME280;29726;53.532;-1.478;2023-07-16T13:20:28;99461.56;;;22.73;nan
24666;BME280;29726;53.532;-1.478;2023-07-16T13:23:13;99461.53;;;22.80;nan
24666;BME280;29726;53.532;-1.478;2023-07-16T13:25:57;99460.34;;;22.83;nan
24666;BME280;29726;53.532;-1.478;2023-07-16T13:28:41;99458.47;;;22.86;nan
24666;BME280;29726;53.532;-1.478;2023-07-16T13:31:24;99468.28;;;22.92;nan
24666;BME280;29726;53.532;-1.478;2023-07-16T13:34:08;99461.84;;;22.92;nan
24666;BME280;29726;53.532;-1.478;2023-07-16T13:36:52;99481.91;;;23.01;nan
24666;BME280;29726;53.532;-1.478;2023-07-16T13:39:36;99484.97;;;22.96;nan
24666;BME280;29726;53.532;-1.478;2023-07-16T13:42:20;99483.41;;;23.02;nan
24666;BME280;29726;53.532;-1.478;2023-07-16T13:45:05;99490.59;;;23.11;nan
24666;BME280;29726;53.532;-1.478;2023-07-16T13:47:49;99490.59;;;23.11;nan
24666;BME280;29726;53.532;-1.478;2023-07-16T13:50:37;99484.94;;;23.03;nan
24666;BME280;29726;53.532;-1.478;2023-07-16T13:53:21;99485.66;;;23.11;nan
24666;BME280;29726;53.532;-1.478;2023-07-16T13:56:05;99509.53;;;23.23;nan
24666;BME280;29726;53.532;-1.478;2023-07-16T13:58:49;99511.03;;;23.24;nan
24666;BME280;29726;53.532;-1.478;2023-07-16T14:04:21;99511.38;;;23.28;nan
24666;BME280;29726;53.532;-1.478;2023-07-16T14:07:06;99520.84;;;23.31;nan
24666;BME280;29726;53.532;-1.478;2023-07-16T14:09:49;99518.75;;;23.31;nan
24666;BME280;29726;53.532;-1.478;2023-07-16T14:12:33;99524.25;;;23.37;nan
24666;BME280;29726;53.532;-1.478;2023-07-16T14:15:18;99536.56;;;23.39;nan
24666;BME280;29726;53.532;-1.478;2023-07-16T14:18:02;99553.81;;;23.41;nan
24666;BME280;29726;53.532;-1.478;2023-07-16T14:20:47;99560.63;;;23.46;nan
24666;BME280;29726;53.532;-1.478;2023-07-16T14:23:31;99562.97;;;23.40;nan
24666;BME280;29726;53.532;-1.478;2023-07-16T14:26:15;99571.66;;;23.49;nan
24666;BME280;29726;53.532;-1.478;2023-07-16T14:28:59;99573.16;;;23.50;nan
24666;BME280;29726;53.532;-1.478;2023-07-16T14:31:42;99564.81;;;23.45;nan
24666;BME280;29726;53.532;-1.478;2023-07-16T14:34:27;99586.81;;;23.52;nan
24666;BME280;29726;53.532;-1.478;2023-07-16T14:37:11;99576.94;;;23.53;nan
24666;BME280;29726;53.532;-1.478;2023-07-16T14:39:56;99596.84;;;23.60;nan
24666;BME280;29726;53.532;-1.478;2023-07-16T14:42:40;99587.53;;;23.60;nan
24666;BME280;29726;53.532;-1.478;2023-07-16T14:45:25;99566.69;;;23.50;nan
24666;BME280;29726;53.532;-1.478;2023-07-16T14:48:09;99589.41;;;23.65;nan
24666;BME280;29726;53.532;-1.478;2023-07-16T14:50:53;99590.91;;;23.66;nan
24666;BME280;29726;53.532;-1.478;2023-07-16T14:53:38;99587.41;;;23.74;nan
24666;BME280;29726;53.532;-1.478;2023-07-16T14:56:22;99591.94;;;23.77;nan
24666;BME280;29726;53.532;-1.478;2023-07-16T14:59:06;99576.38;;;23.78;nan
24666;BME280;29726;53.532;-1.478;2023-07-16T15:01:50;99580.53;;;23.85;nan
24666;BME280;29726;53.532;-1.478;2023-07-16T15:04:34;99575.59;;;23.85;nan
24666;BME280;29726;53.532;-1.478;2023-07-16T15:07:18;99573.09;;;23.89;nan
24666;BME280;29726;53.532;-1.478;2023-07-16T15:10:06;99581.59;;;23.97;nan
24666;BME280;29726;53.532;-1.478;2023-07-16T15:12:50;99591.22;;;24.01;nan
24666;BME280;29726;53.532;-1.478;2023-07-16T15:18:19;99598.66;;;24.04;nan
24666;BME280;29726;53.532;-1.478;2023-07-16T15:21:03;99605.78;;;24.13;nan
24666;BME280;29726;53.532;-1.478;2023-07-16T15:23:47;99585.56;;;24.18;nan
24666;BME280;29726;53.532;-1.478;2023-07-16T15:26:31;99594.47;;;24.22;nan
24666;BME280;29726;53.532;-1.478;2023-07-16T15:29:15;99592.00;;;24.26;nan
24666;BME280;29726;53.532;-1.478;2023-07-16T15:32:00;99592.00;;;24.26;nan
24666;BME280;29726;53.532;-1.478;2023-07-16T15:34:45;99692.41;;;24.25;nan
24666;BME280;29726;53.532;-1.478;2023-07-16T15:37:29;99689.44;;;24.15;nan
24666;BME280;29726;53.532;-1.478;2023-07-16T15:42:58;99670.22;;;23.91;nan
24666;BME280;29726;53.532;-1.478;2023-07-16T15:45:42;99630.44;;;23.69;nan
24666;BME280;29726;53.532;-1.478;2023-07-16T15:48:26;99667.22;;;23.82;nan
24666;BME280;29726;53.532;-1.478;2023-07-16T15:51:11;99672.19;;;23.82;nan
24666;BME280;29726;53.532;-1.478;2023-07-16T15:53:55;99693.41;;;23.88;nan
24666;BME280;29726;53.532;-1.478;2023-07-16T15:56:40;99682.78;;;23.88;nan
24666;BME280;29726;53.532;-1.478;2023-07-16T15:59:24;99685.63;;;23.88;nan
24666;BME280;29726;53.532;-1.478;2023-07-16T16:02:08;99689.66;;;23.85;nan
24666;BME280;29726;53.532;-1.478;2023-07-16T16:04:52;99711.69;;;23.77;nan
24666;BME280;29726;53.532;-1.478;2023-07-16T16:07:44;99722.34;;;23.77;nan
24666;BME280;29726;53.532;-1.478;2023-07-16T16:10:28;99740.25;;;23.70;nan
24666;BME280;29726;53.532;-1.478;2023-07-16T16:13:19;99731.88;;;23.72;nan
24666;BME280;29726;53.532;-1.478;2023-07-16T16:16:04;99688.66;;;23.51;nan
24666;BME280;29726;53.532;-1.478;2023-07-16T16:18:48;99723.91;;;23.71;nan
24666;BME280;29726;53.532;-1.478;2023-07-16T16:21:32;99750.50;;;23.73;nan
24666;BME280;29726;53.532;-1.478;2023-07-16T16:24:16;99712.69;;;23.65;nan
24666;BME280;29726;53.532;-1.478;2023-07-16T16:27:00;99690.13;;;23.60;nan
24666;BME280;29726;53.532;-1.478;2023-07-16T16:29:44;99699.03;;;23.64;nan
24666;BME280;29726;53.532;-1.478;2023-07-16T16:32:28;99703.03;;;23.68;nan
24666;BME280;29726;53.532;-1.478;2023-07-16T16:35:12;99682.19;;;23.51;nan
24666;BME280;29726;53.532;-1.478;2023-07-16T16:37:56;99704.88;;;23.73;nan
24666;BME280;29726;53.532;-1.478;2023-07-16T16:40:42;99710.41;;;23.71;nan
24666;BME280;29726;53.532;-1.478;2023-07-16T16:43:26;99698.06;;;23.69;nan
24666;BME280;29726;53.532;-1.478;2023-07-16T16:46:10;99712.66;;;23.73;nan
24666;BME280;29726;53.532;-1.478;2023-07-16T16:48:54;99717.03;;;23.73;nan
24666;BME280;29726;53.532;-1.478;2023-07-16T16:51:38;99711.34;;;23.73;nan
24666;BME280;29726;53.532;-1.478;2023-07-16T16:54:22;99711.34;;;23.73;nan
24666;BME280;29726;53.532;-1.478;2023-07-16T16:57:06;99701.28;;;23.73;nan
24666;BME280;29726;53.532;-1.478;2023-07-16T16:59:50;99702.59;;;23.72;nan
24666;BME280;29726;53.532;-1.478;2023-07-16T17:02:36;99698.41;;;23.73;nan
24666;BME280;29726;53.532;-1.478;2023-07-16T17:05:20;99698.41;;;23.73;nan
24666;BME280;29726;53.532;-1.478;2023-07-16T17:08:04;99705.63;;;23.73;nan
24666;BME280;29726;53.532;-1.478;2023-07-16T17:10:49;99699.94;;;23.73;nan
24666;BME280;29726;53.532;-1.478;2023-07-16T17:13:34;99693.13;;;23.69;nan
24666;BME280;29726;53.532;-1.478;2023-07-16T17:19:02;99708.66;;;23.75;nan
24666;BME280;29726;53.532;-1.478;2023-07-16T17:21:46;99706.97;;;23.73;nan
24666;BME280;29726;53.532;-1.478;2023-07-16T17:24:30;99698.06;;;23.69;nan
24666;BME280;29726;53.532;-1.478;2023-07-16T17:27:14;99711.34;;;23.73;nan
24666;BME280;29726;53.532;-1.478;2023-07-16T17:30:01;99719.31;;;23.75;nan
24666;BME280;29726;53.532;-1.478;2023-07-16T17:32:45;99722.75;;;23.73;nan
24666;BME280;29726;53.532;-1.478;2023-07-16T17:35:29;99709.84;;;23.65;nan
24666;BME280;29726;53.532;-1.478;2023-07-16T17:38:14;99739.84;;;23.73;nan
24666;BME280;29726;53.532;-1.478;2023-07-16T17:40:57;99732.66;;;23.65;nan
24666;BME280;29726;53.532;-1.478;2023-07-16T17:43:42;99742.16;;;23.68;nan
24666;BME280;29726;53.532;-1.478;2023-07-16T17:46:25;99752.41;;;23.71;nan
24666;BME280;29726;53.532;-1.478;2023-07-16T17:49:09;99752.81;;;23.67;nan
24666;BME280;29726;53.532;-1.478;2023-07-16T17:51:54;99761.56;;;23.69;nan
24666;BME280;29726;53.532;-1.478;2023-07-16T17:54:38;99756.06;;;23.64;nan
24666;BME280;29726;53.532;-1.478;2023-07-16T17:57:22;99758.91;;;23.64;nan
24666;BME280;29726;53.532;-1.478;2023-07-16T18:00:07;99745.66;;;23.44;nan
24666;BME280;29726;53.532;-1.478;2023-07-16T18:02:52;99775.06;;;23.61;nan
24666;BME280;29726;53.532;-1.478;2023-07-16T18:05:36;99775.81;;;23.62;nan
24666;BME280;29726;53.532;-1.478;2023-07-16T18:08:21;99795.00;;;23.61;nan
24666;BME280;29726;53.532;-1.478;2023-07-16T18:11:06;99764.25;;;23.52;nan
24666;BME280;29726;53.532;-1.478;2023-07-16T18:13:50;99777.91;;;23.54;nan
24666;BME280;29726;53.532;-1.478;2023-07-16T18:16:34;99765.06;;;23.45;nan
24666;BME280;29726;53.532;-1.478;2023-07-16T18:19:18;99753.69;;;23.30;nan
24666;BME280;29726;53.532;-1.478;2023-07-16T18:22:02;99781.75;;;23.49;nan
24666;BME280;29726;53.532;-1.478;2023-07-16T18:24:46;99792.78;;;23.45;nan
24666;BME280;29726;53.532;-1.478;2023-07-16T18:27:34;99795.44;;;23.43;nan
24666;BME280;29726;53.532;-1.478;2023-07-16T18:30:18;99785.56;;;23.44;nan
24666;BME280;29726;53.532;-1.478;2023-07-16T18:33:02;99774.53;;;23.40;nan
24666;BME280;29726;53.532;-1.478;2023-07-16T18:35:47;99779.50;;;23.40;nan
24666;BME280;29726;53.532;-1.478;2023-07-16T18:38:33;99782.53;;;23.34;nan
24666;BME280;29726;53.532;-1.478;2023-07-16T18:41:17;99774.97;;;23.29;nan
24666;BME280;29726;53.532;-1.478;2023-07-16T18:44:01;99752.97;;;23.15;nan
24666;BME280;29726;53.532;-1.478;2023-07-16T18:46:45;99768.53;;;23.21;nan
24666;BME280;29726;53.532;-1.478;2023-07-16T18:49:29;99792.06;;;23.29;nan
24666;BME280;29726;53.532;-1.478;2023-07-16T18:52:13;99792.06;;;23.29;nan
24666;BME280;29726;53.532;-1.478;2023-07-16T18:54:57;99789.78;;;23.28;nan
24666;BME280;29726;53.532;-1.478;2023-07-16T18:57:41;99795.09;;;23.24;nan
24666;BME280;29726;53.532;-1.478;2023-07-16T19:00:27;99804.22;;;23.22;nan
24666;BME280;29726;53.532;-1.478;2023-07-16T19:03:11;99801.94;;;23.21;nan
24666;BME280;29726;53.532;-1.478;2023-07-16T19:05:55;99777.25;;;23.01;nan
24666;BME280;29726;53.532;-1.478;2023-07-16T19:08:41;99807.47;;;23.19;nan
24666;BME280;29726;53.532;-1.478;2023-07-16T19:11:25;99804.59;;;23.11;nan
24666;BME280;29726;53.532;-1.478;2023-07-16T19:14:10;99799.66;;;23.04;nan
24666;BME280;29726;53.532;-1.478;2023-07-16T19:16:54;99807.25;;;23.09;nan
24666;BME280;29726;53.532;-1.478;2023-07-16T19:19:38;99799.66;;;23.04;nan
24666;BME280;29726;53.532;-1.478;2023-07-16T19:22:23;99789.97;;;23.00;nan
24666;BME280;29726;53.532;-1.478;2023-07-16T19:25:07;99801.72;;;23.04;nan
24666;BME280;29726;53.532;-1.478;2023-07-16T19:27:51;99804.59;;;23.04;nan
24666;BME280;29726;53.532;-1.478;2023-07-16T19:30:35;99801.19;;;22.98;nan
24666;BME280;29726;53.532;-1.478;2023-07-16T19:33:20;99808.38;;;22.99;nan
24666;BME280;29726;53.532;-1.478;2023-07-16T19:36:04;99800.03;;;22.93;nan
24666;BME280;29726;53.532;-1.478;2023-07-16T19:38:48;99813.72;;;22.95;nan
24666;BME280;29726;53.532;-1.478;2023-07-16T19:41:32;99797.56;;;22.82;nan
24666;BME280;29726;53.532;-1.478;2023-07-16T19:44:16;99811.03;;;22.89;nan
24666;BME280;29726;53.532;-1.478;2023-07-16T19:47:00;99805.53;;;22.84;nan
24666;BME280;29726;53.532;-1.478;2023-07-16T19:49:44;99820.16;;;22.80;nan
24666;BME280;29726;53.532;-1.478;2023-07-16T19:52:28;99818.06;;;22.81;nan
24666;BME280;29726;53.532;-1.478;2023-07-16T19:55:12;99822.06;;;22.78;nan
24666;BME280;29726;53.532;-1.478;2023-07-16T19:57:56;99830.41;;;22.76;nan
24666;BME280;29726;53.532;-1.478;2023-07-16T20:00:40;99831.53;;;22.73;nan
24666;BME280;29726;53.532;-1.478;2023-07-16T20:03:24;99824.28;;;22.49;nan
24666;BME280;29726;53.532;-1.478;2023-07-16T20:06:08;99835.34;;;22.68;nan
24666;BME280;29726;53.532;-1.478;2023-07-16T20:08:52;99831.16;;;22.61;nan
24666;BME280;29726;53.532;-1.478;2023-07-16T20:11:36;99837.56;;;22.62;nan
24666;BME280;29726;53.532;-1.478;2023-07-16T20:14:20;99845.19;;;22.59;nan
24666;BME280;29726;53.532;-1.478;2023-07-16T20:17:04;99837.59;;;22.54;nan
24666;BME280;29726;53.532;-1.478;2023-07-16T20:19:49;99832.25;;;22.51;nan
24666;BME280;29726;53.532;-1.478;2023-07-16T20:22:33;99854.47;;;22.52;nan
24666;BME280;29726;53.532;-1.478;2023-07-16T20:25:17;99839.84;;;22.48;nan
24666;BME280;29726;53.532;-1.478;2023-07-16T20:28:07;99837.19;;;22.43;nan
24666;BME280;29726;53.532;-1.478;2023-07-16T20:30:52;99838.31;;;22.40;nan
24666;BME280;29726;53.532;-1.478;2023-07-16T20:33:37;99845.84;;;22.30;nan
24666;BME280;29726;53.532;-1.478;2023-07-16T20:36:21;99840.50;;;22.26;nan
24666;BME280;29726;53.532;-1.478;2023-07-16T20:39:05;99850.38;;;22.25;nan
24666;BME280;29726;53.532;-1.478;2023-07-16T20:41:49;99847.72;;;22.27;nan
24666;BME280;29726;53.532;-1.478;2023-07-16T20:44:33;99857.19;;;22.22;nan
24666;BME280;29726;53.532;-1.478;2023-07-16T20:47:17;99851.88;;;22.19;nan
24666;BME280;29726;53.532;-1.478;2023-07-16T20:50:01;99868.94;;;22.19;nan
24666;BME280;29726;53.532;-1.478;2023-07-16T20:52:53;99861.13;;;22.12;nan
24666;BME280;29726;53.532;-1.478;2023-07-16T20:55:38;99840.38;;;21.89;nan
24666;BME280;29726;53.532;-1.478;2023-07-16T20:58:22;99870.38;;;22.05;nan
24666;BME280;29726;53.532;-1.478;2023-07-16T21:01:06;99879.13;;;22.07;nan
24666;BME280;29726;53.532;-1.478;2023-07-16T21:03:50;99838.06;;;21.80;nan
24666;BME280;29726;53.532;-1.478;2023-07-16T21:06:35;99880.41;;;21.98;nan
24666;BME280;29726;53.532;-1.478;2023-07-16T21:09:19;99879.47;;;21.96;nan
24666;BME280;29726;53.532;-1.478;2023-07-16T21:12:03;99880.59;;;21.93;nan
24666;BME280;29726;53.532;-1.478;2023-07-16T21:14:47;99878.63;;;21.88;nan
24666;BME280;29726;53.532;-1.478;2023-07-16T21:17:32;99873.34;;;21.85;nan
24666;BME280;29726;53.532;-1.478;2023-07-16T21:20:17;99883.00;;;21.82;nan
24666;BME280;29726;53.532;-1.478;2023-07-16T21:23:01;99886.91;;;21.79;nan
24666;BME280;29726;53.532;-1.478;2023-07-16T21:25:46;99888.41;;;21.72;nan
24666;BME280;29726;53.532;-1.478;2023-07-16T21:28:31;99899.78;;;21.72;nan
24666;BME280;29726;53.532;-1.478;2023-07-16T21:31:15;99857.19;;;21.52;nan
24666;BME280;29726;53.532;-1.478;2023-07-16T21:33:59;99892.16;;;21.67;nan
24666;BME280;29726;53.532;-1.478;2023-07-16T21:36:43;99887.16;;;21.60;nan
24666;BME280;29726;53.532;-1.478;2023-07-16T21:39:27;99888.84;;;21.56;nan
24666;BME280;29726;53.532;-1.478;2023-07-16T21:42:11;99906.84;;;21.58;nan
24666;BME280;29726;53.532;-1.478;2023-07-16T21:44:55;99904.56;;;21.57;nan
24666;BME280;29726;53.532;-1.478;2023-07-16T21:47:39;99904.72;;;21.51;nan
24666;BME280;29726;53.532;-1.478;2023-07-16T21:50:23;99905.63;;;21.46;nan
24666;BME280;29726;53.532;-1.478;2023-07-16T21:55:58;99899.34;;;21.40;nan
24666;BME280;29726;53.532;-1.478;2023-07-16T21:58:42;99902.53;;;21.37;nan
24666;BME280;29726;53.532;-1.478;2023-07-16T22:01:26;99899.06;;;21.31;nan
24666;BME280;29726;53.532;-1.478;2023-07-16T22:04:11;99899.66;;;21.29;nan
24666;BME280;29726;53.532;-1.478;2023-07-16T22:06:56;99908.50;;;21.26;nan
24666;BME280;29726;53.532;-1.478;2023-07-16T22:09:40;99919.84;;;21.26;nan
24666;BME280;29726;53.532;-1.478;2023-07-16T22:15:09;99920.19;;;21.22;nan
24666;BME280;29726;53.532;-1.478;2023-07-16T22:17:53;99884.75;;;20.95;nan
24666;BME280;29726;53.532;-1.478;2023-07-16T22:20:37;99918.84;;;21.16;nan
24666;BME280;29726;53.532;-1.478;2023-07-16T22:23:22;99924.84;;;21.12;nan
24666;BME280;29726;53.532;-1.478;2023-07-16T22:26:06;99907.63;;;21.10;nan
24666;BME280;29726;53.532;-1.478;2023-07-16T22:31:34;99889.22;;;20.83;nan
24666;BME280;29726;53.532;-1.478;2023-07-16T22:34:18;99916.63;;;21.01;nan
24666;BME280;29726;53.532;-1.478;2023-07-16T22:37:03;99920.00;;;21.00;nan
24666;BME280;29726;53.532;-1.478;2023-07-16T22:39:48;99907.63;;;20.90;nan
24666;BME280;29726;53.532;-1.478;2023-07-16T22:42:32;99917.88;;;20.93;nan
24666;BME280;29726;53.532;-1.478;2023-07-16T22:45:16;99916.88;;;20.90;nan
24666;BME280;29726;53.532;-1.478;2023-07-16T22:47:59;99881.06;;;20.67;nan
24666;BME280;29726;53.532;-1.478;2023-07-16T22:50:44;99916.47;;;20.86;nan
24666;BME280;29726;53.532;-1.478;2023-07-16T22:53:28;99915.25;;;20.82;nan
24666;BME280;29726;53.532;-1.478;2023-07-16T22:56:12;99907.22;;;20.73;nan
24666;BME280;29726;53.532;-1.478;2023-07-16T22:58:56;99919.31;;;20.73;nan
24666;BME280;29726;53.532;-1.478;2023-07-16T23:01:40;99945.31;;;20.77;nan
24666;BME280;29726;53.532;-1.478;2023-07-16T23:04:24;99917.38;;;20.68;nan
24666;BME280;29726;53.532;-1.478;2023-07-16T23:07:08;99923.06;;;20.68;nan
24666;BME280;29726;53.532;-1.478;2023-07-16T23:09:52;99937.44;;;20.70;nan
24666;BME280;29726;53.532;-1.478;2023-07-16T23:12:37;99940.09;;;20.68;nan
24666;BME280;29726;53.532;-1.478;2023-07-16T23:15:21;99933.22;;;20.64;nan
24666;BME280;29726;53.532;-1.478;2023-07-16T23:18:05;99929.41;;;20.61;nan
24666;BME280;29726;53.532;-1.478;2023-07-16T23:20:49;99931.63;;;20.55;nan
24666;BME280;29726;53.532;-1.478;2023-07-16T23:23:33;99928.56;;;20.53;nan
24666;BME280;29726;53.532;-1.478;2023-07-16T23:26:19;99935.78;;;20.54;nan
24666;BME280;29726;53.532;-1.478;2023-07-16T23:29:03;99931.19;;;20.51;nan
24666;BME280;29726;53.532;-1.478;2023-07-16T23:31:48;99914.66;;;20.42;nan
24666;BME280;29726;53.532;-1.478;2023-07-16T23:34:31;99939.47;;;20.49;nan
24666;BME280;29726;53.532;-1.478;2023-07-16T23:40:00;99936.00;;;20.43;nan
24666;BME280;29726;53.532;-1.478;2023-07-16T23:42:44;99944.00;;;20.45;nan
24666;BME280;29726;53.532;-1.478;2023-07-16T23:45:28;99942.00;;;20.40;nan
24666;BME280;29726;53.532;-1.478;2023-07-16T23:48:12;99955.66;;;20.41;nan
24666;BME280;29726;53.532;-1.478;2023-07-16T23:50:56;99952.94;;;20.36;nan
24666;BME280;29726;53.532;-1.478;2023-07-16T23:53:40;99954.44;;;20.37;nan
24666;BME280;29726;53.532;-1.478;2023-07-16T23:56:24;99955.13;;;20.30;nan
24666;BME280;29726;53.532;-1.478;2023-07-16T23:59:08;99962.31;;;20.31;nan
